createdAt,value
2023-04-25T00:00:48.302Z,20.24
2023-04-25T00:03:14.863Z,19.74
2023-04-25T00:05:41.442Z,19.61
2023-04-25T00:08:07.901Z,19.92
2023-04-25T00:10:34.255Z,20.05
2023-04-25T00:13:00.560Z,19.99
2023-04-25T00:15:26.893Z,19.98
2023-04-25T00:17:53.328Z,19.99
2023-04-25T00:20:19.664Z,19.98
2023-04-25T00:22:45.974Z,19.99
2023-04-25T00:25:12.332Z,19.96
2023-04-25T00:27:38.659Z,20.04
2023-04-25T00:30:05.419Z,20.03
2023-04-25T00:32:31.913Z,20.02
2023-04-25T00:34:58.272Z,20.00
2023-04-25T00:37:24.585Z,19.98
2023-04-25T00:39:50.961Z,19.99
2023-04-25T00:42:17.391Z,19.98
2023-04-25T00:44:43.889Z,19.97
2023-04-25T00:47:10.408Z,19.95
2023-04-25T00:49:36.741Z,19.94
2023-04-25T00:52:03.056Z,19.95
2023-04-25T00:54:29.458Z,19.92
2023-04-25T00:56:55.773Z,19.88
2023-04-25T00:59:22.109Z,19.91
2023-04-25T01:01:48.494Z,19.84
2023-04-25T01:04:15.088Z,19.86
2023-04-25T01:06:41.541Z,19.85
2023-04-25T01:09:07.948Z,19.84
2023-04-25T01:11:34.287Z,19.81
2023-04-25T01:14:00.824Z,19.80
2023-04-25T01:16:28.003Z,19.77
2023-04-25T01:18:54.322Z,19.74
2023-04-25T01:21:20.756Z,19.70
2023-04-25T01:23:48.217Z,19.66
2023-04-25T01:26:14.726Z,19.53
2023-04-25T01:28:41.307Z,19.56
2023-04-25T01:31:08.429Z,19.12
2023-04-25T01:33:34.859Z,19.03
2023-04-25T01:36:01.241Z,19.43
2023-04-25T01:38:27.618Z,19.42
2023-04-25T01:40:54.475Z,19.41
2023-04-25T01:43:21.378Z,19.43
2023-04-25T01:45:47.801Z,19.32
2023-04-25T01:48:14.290Z,19.24
2023-04-25T01:50:40.718Z,19.24
2023-04-25T01:53:07.217Z,19.15
2023-04-25T01:55:33.604Z,18.89
2023-04-25T01:58:07.114Z,19.04
2023-04-25T02:00:52.214Z,19.01
2023-04-25T02:03:18.675Z,18.97
2023-04-25T02:05:45.167Z,18.97
2023-04-25T02:08:13.343Z,19.09
2023-04-25T02:10:39.747Z,19.20
2023-04-25T02:13:13.655Z,19.32
2023-04-25T02:16:00.329Z,19.41
2023-04-25T02:18:26.781Z,19.48
2023-04-25T02:20:53.109Z,19.60
2023-04-25T02:23:20.420Z,19.69
2023-04-25T02:25:46.864Z,19.80
2023-04-25T02:28:13.894Z,19.91
2023-04-25T02:30:40.220Z,20.01
2023-04-25T02:33:06.678Z,20.13
2023-04-25T02:35:32.991Z,20.26
2023-04-25T02:37:59.349Z,20.38
2023-04-25T02:40:25.744Z,20.49
2023-04-25T02:42:54.243Z,20.61
2023-04-25T02:45:20.558Z,20.71
2023-04-25T02:47:47.128Z,20.86
2023-04-25T02:50:13.563Z,21.00
2023-04-25T02:52:40.707Z,21.13
2023-04-25T02:55:14.734Z,21.26
2023-04-25T02:57:42.004Z,21.37
2023-04-25T03:00:11.516Z,21.50
2023-04-25T03:02:38.055Z,21.61
2023-04-25T03:05:04.492Z,21.71
2023-04-25T03:07:31.221Z,21.80
2023-04-25T03:09:57.591Z,21.89
2023-04-25T03:12:23.952Z,21.98
2023-04-25T03:14:50.544Z,22.11
2023-04-25T03:17:16.940Z,22.19
2023-04-25T03:19:43.334Z,22.24
2023-04-25T03:22:09.826Z,22.32
2023-04-25T03:24:36.303Z,22.41
2023-04-25T03:27:03.075Z,22.40
2023-04-25T03:29:29.525Z,22.46
2023-04-25T03:31:56.772Z,22.54
2023-04-25T03:34:23.168Z,22.66
2023-04-25T03:36:49.593Z,22.80
2023-04-25T03:39:16.072Z,22.89
2023-04-25T03:41:47.310Z,22.96
2023-04-25T03:44:14.881Z,23.07
2023-04-25T03:46:41.634Z,23.13
2023-04-25T03:49:08.443Z,23.26
2023-04-25T03:51:53.752Z,23.39
2023-04-25T03:54:20.359Z,23.52
2023-04-25T03:57:02.645Z,23.58
2023-04-25T03:59:32.400Z,23.71
2023-04-25T04:01:59.001Z,23.76
2023-04-25T04:04:26.069Z,23.87
2023-04-25T04:06:52.812Z,23.96
2023-04-25T04:09:24.447Z,24.03
2023-04-25T04:11:51.557Z,24.17
2023-04-25T04:14:18.079Z,24.27
2023-04-25T04:16:46.807Z,24.33
2023-04-25T04:19:13.418Z,24.45
2023-04-25T04:21:44.654Z,24.18
2023-04-25T04:24:11.098Z,23.64
2023-04-25T04:26:49.979Z,23.15
2023-04-25T04:29:29.899Z,22.56
2023-04-25T04:32:11.430Z,22.09
2023-04-25T04:34:38.235Z,21.69
2023-04-25T04:37:04.685Z,21.31
2023-04-25T04:39:31.390Z,21.14
2023-04-25T04:42:07.134Z,20.93
2023-04-25T04:44:42.261Z,20.83
2023-04-25T04:47:22.885Z,20.77
2023-04-25T04:49:59.856Z,20.67
2023-04-25T04:52:36.463Z,20.73
2023-04-25T04:55:21.801Z,20.97
2023-04-25T04:58:03.260Z,21.27
2023-04-25T05:00:48.095Z,21.58
2023-04-25T05:03:40.630Z,21.86
2023-04-25T05:06:14.157Z,22.10
2023-04-25T05:08:51.661Z,22.30
2023-04-25T05:11:36.913Z,22.51
2023-04-25T05:14:23.582Z,22.70
2023-04-25T05:17:28.910Z,22.87
2023-04-25T05:20:11.663Z,23.04
2023-04-25T05:23:04.317Z,23.20
2023-04-25T05:26:08.984Z,23.36
2023-04-25T05:28:47.756Z,23.52
2023-04-25T05:31:31.153Z,23.65
2023-04-25T05:34:29.988Z,23.78
2023-04-25T05:36:59.686Z,23.79
2023-04-25T05:39:26.192Z,23.62
2023-04-25T05:42:15.277Z,23.52
2023-04-25T05:45:05.058Z,23.53
2023-04-25T05:47:54.489Z,23.58
2023-04-25T05:50:36.231Z,23.74
2023-04-25T05:53:23.031Z,23.86
2023-04-25T05:55:56.382Z,23.96
2023-04-25T05:58:25.656Z,24.07
2023-04-25T06:00:52.752Z,24.17
2023-04-25T06:03:20.873Z,24.25
2023-04-25T06:05:48.762Z,24.26
2023-04-25T06:08:15.230Z,24.34
2023-04-25T06:10:41.656Z,24.47
2023-04-25T06:13:08.082Z,24.54
2023-04-25T06:15:36.125Z,24.62
2023-04-25T06:18:02.650Z,24.69
2023-04-25T06:20:29.184Z,24.76
2023-04-25T06:22:58.165Z,24.71
2023-04-25T06:25:33.190Z,25.47
2023-04-25T06:27:59.886Z,25.63
2023-04-25T06:30:26.386Z,25.61
2023-04-25T06:32:57.443Z,25.69
2023-04-25T06:35:24.240Z,25.63
2023-04-25T06:37:50.724Z,24.68
2023-04-25T06:40:20.088Z,24.52
2023-04-25T06:42:46.457Z,24.49
2023-04-25T06:45:33.298Z,24.44
2023-04-25T06:47:59.898Z,24.42
2023-04-25T06:50:26.385Z,24.49
2023-04-25T06:52:52.781Z,24.59
2023-04-25T06:55:20.361Z,25.27
2023-04-25T06:58:09.880Z,25.06
2023-04-25T07:00:54.817Z,24.56
2023-04-25T07:03:24.013Z,24.17
2023-04-25T07:05:54.882Z,23.79
2023-04-25T07:08:21.309Z,23.56
2023-04-25T07:10:49.967Z,23.27
2023-04-25T07:13:16.684Z,22.37
2023-04-25T07:15:43.091Z,21.92
2023-04-25T07:18:09.596Z,21.83
2023-04-25T07:20:36.016Z,21.90
2023-04-25T07:23:02.971Z,22.01
2023-04-25T07:25:29.430Z,22.15
2023-04-25T07:27:55.822Z,22.28
2023-04-25T07:30:22.298Z,22.45
2023-04-25T07:32:48.713Z,22.66
2023-04-25T07:35:15.165Z,22.82
2023-04-25T07:37:41.604Z,23.00
2023-04-25T07:40:14.509Z,23.09
2023-04-25T07:42:45.655Z,23.17
2023-04-25T07:45:15.799Z,23.29
2023-04-25T07:47:42.260Z,23.42
2023-04-25T07:50:08.892Z,23.47
2023-04-25T07:52:35.483Z,23.51
2023-04-25T07:55:22.078Z,23.57
2023-04-25T07:57:57.479Z,23.75
2023-04-25T08:00:23.884Z,23.86
2023-04-25T08:03:01.898Z,23.98
2023-04-25T08:05:28.747Z,24.12
2023-04-25T08:08:01.620Z,24.18
2023-04-25T08:10:27.979Z,24.26
2023-04-25T08:12:54.368Z,24.59
2023-04-25T08:15:21.096Z,25.07
2023-04-25T08:17:47.576Z,24.55
2023-04-25T08:20:14.198Z,24.54
2023-04-25T08:22:41.374Z,24.62
2023-04-25T08:25:33.969Z,24.80
2023-04-25T08:28:00.655Z,24.80
2023-04-25T08:30:27.091Z,24.82
2023-04-25T08:32:53.780Z,24.81
2023-04-25T08:35:43.201Z,24.80
2023-04-25T08:38:09.625Z,24.86
2023-04-25T08:40:36.012Z,24.88
2023-04-25T08:43:06.592Z,24.91
2023-04-25T08:45:33.038Z,24.90
2023-04-25T08:47:59.740Z,24.92
2023-04-25T08:50:26.277Z,24.98
2023-04-25T08:52:53.149Z,24.98
2023-04-25T08:55:19.550Z,25.01
2023-04-25T08:57:46.099Z,24.99
2023-04-25T09:00:12.508Z,24.94
2023-04-25T09:02:41.748Z,24.97
2023-04-25T09:05:08.351Z,24.94
2023-04-25T09:07:34.744Z,24.97
2023-04-25T09:10:01.165Z,25.06
2023-04-25T09:12:27.800Z,25.10
2023-04-25T09:14:54.198Z,25.14
2023-04-25T09:17:26.906Z,25.19
2023-04-25T09:19:55.024Z,25.19
2023-04-25T09:22:31.277Z,25.18
2023-04-25T09:24:58.330Z,25.18
2023-04-25T09:27:28.066Z,25.29
2023-04-25T09:30:17.522Z,25.34
2023-04-25T09:33:00.846Z,25.32
2023-04-25T09:35:27.519Z,25.28
2023-04-25T09:37:55.321Z,25.18
2023-04-25T09:40:40.068Z,25.39
2023-04-25T09:43:12.968Z,25.43
2023-04-25T09:45:39.567Z,25.39
2023-04-25T09:48:06.341Z,25.43
2023-04-25T09:50:33.977Z,25.49
2023-04-25T09:53:07.498Z,25.31
2023-04-25T09:55:50.110Z,25.23
2023-04-25T09:58:16.528Z,25.22
2023-04-25T10:00:42.918Z,25.15
2023-04-25T10:03:22.965Z,25.17
2023-04-25T10:06:03.129Z,25.33
2023-04-25T10:08:29.616Z,25.41
2023-04-25T10:10:56.067Z,25.33
2023-04-25T10:13:22.426Z,25.27
2023-04-25T10:15:48.915Z,25.48
2023-04-25T10:18:15.377Z,24.55
2023-04-25T10:20:41.769Z,24.05
2023-04-25T10:23:08.162Z,23.86
2023-04-25T10:25:34.513Z,23.62
2023-04-25T10:28:00.874Z,23.71
2023-04-25T10:30:27.304Z,24.02
2023-04-25T10:32:53.673Z,23.98
2023-04-25T10:35:20.038Z,23.91
2023-04-25T10:37:46.459Z,23.31
2023-04-25T10:40:12.806Z,22.78
2023-04-25T10:42:39.152Z,22.34
2023-04-25T10:45:05.560Z,22.15
2023-04-25T10:47:31.932Z,22.06
2023-04-25T10:49:58.293Z,22.70
2023-04-25T10:52:24.707Z,23.07
2023-04-25T10:54:51.107Z,23.49
2023-04-25T10:57:17.473Z,23.81
2023-04-25T10:59:43.896Z,24.07
2023-04-25T11:02:10.410Z,23.61
2023-04-25T11:04:37.296Z,23.40
2023-04-25T11:07:07.019Z,23.12
2023-04-25T11:09:34.052Z,22.77
2023-04-25T11:12:00.453Z,22.45
2023-04-25T11:14:26.869Z,21.94
2023-04-25T11:16:53.268Z,21.83
2023-04-25T11:19:19.630Z,21.87
2023-04-25T11:21:46.045Z,22.49
2023-04-25T11:24:12.399Z,22.66
2023-04-25T11:26:38.719Z,22.82
2023-04-25T11:29:05.080Z,22.96
2023-04-25T11:31:31.590Z,23.10
2023-04-25T11:33:57.960Z,23.26
2023-04-25T11:36:24.379Z,23.38
2023-04-25T11:38:50.848Z,23.50
2023-04-25T11:41:17.176Z,23.64
2023-04-25T11:43:43.626Z,23.73
2023-04-25T11:46:10.071Z,23.81
2023-04-25T11:48:36.476Z,23.95
2023-04-25T11:51:02.892Z,23.92
2023-04-25T11:53:29.239Z,24.02
2023-04-25T11:55:55.599Z,24.13
2023-04-25T11:58:22.009Z,24.22
2023-04-25T12:00:50.216Z,24.32
2023-04-25T12:03:17.376Z,24.13
2023-04-25T12:05:44.031Z,24.14
2023-04-25T12:08:10.524Z,24.16
2023-04-25T12:10:36.905Z,24.20
2023-04-25T12:13:03.646Z,24.45
2023-04-25T12:15:30.001Z,24.57
2023-04-25T12:17:56.921Z,24.61
2023-04-25T12:20:23.718Z,24.70
2023-04-25T12:22:50.108Z,24.75
2023-04-25T12:25:16.515Z,24.81
2023-04-25T12:27:42.981Z,24.60
2023-04-25T12:30:09.530Z,24.52
2023-04-25T12:32:36.238Z,24.53
2023-04-25T12:35:02.694Z,24.58
2023-04-25T12:37:29.034Z,24.60
2023-04-25T12:39:55.403Z,24.60
2023-04-25T12:42:21.829Z,24.59
2023-04-25T12:44:48.231Z,24.58
2023-04-25T12:47:14.591Z,24.57
2023-04-25T12:49:40.965Z,24.47
2023-04-25T12:52:07.325Z,24.13
2023-04-25T12:54:33.679Z,23.87
2023-04-25T12:57:00.192Z,23.70
2023-04-25T12:59:26.580Z,23.73
2023-04-25T13:01:52.990Z,23.78
2023-04-25T13:04:19.478Z,23.82
2023-04-25T13:06:45.873Z,23.86
2023-04-25T13:09:12.232Z,23.91
2023-04-25T13:11:38.658Z,23.96
2023-04-25T13:14:05.062Z,24.02
2023-04-25T13:16:31.419Z,24.38
2023-04-25T13:18:57.861Z,24.43
2023-04-25T13:21:24.256Z,24.43
2023-04-25T13:23:50.758Z,24.48
2023-04-25T13:26:17.361Z,24.39
2023-04-25T13:28:44.963Z,24.12
2023-04-25T13:31:11.569Z,23.56
2023-04-25T13:33:37.981Z,23.19
2023-04-25T13:36:04.357Z,23.23
2023-04-25T13:38:30.700Z,23.27
2023-04-25T13:40:57.247Z,23.35
2023-04-25T13:43:23.649Z,23.47
2023-04-25T13:45:50.043Z,23.56
2023-04-25T13:48:16.499Z,23.64
2023-04-25T13:50:43.036Z,23.67
2023-04-25T13:53:09.408Z,23.70
2023-04-25T13:55:35.812Z,23.73
2023-04-25T13:58:02.129Z,23.78
2023-04-25T14:00:28.505Z,23.83
2023-04-25T14:02:55.020Z,23.88
2023-04-25T14:05:21.438Z,23.95
2023-04-25T14:07:47.770Z,23.99
2023-04-25T14:10:14.182Z,24.02
2023-04-25T14:12:40.599Z,24.09
2023-04-25T14:15:06.999Z,24.11
2023-04-25T14:17:33.422Z,24.09
2023-04-25T14:19:59.932Z,23.94
2023-04-25T14:22:26.436Z,23.95
2023-04-25T14:24:52.920Z,23.92
2023-04-25T14:27:19.326Z,23.88
2023-04-25T14:29:45.654Z,23.92
2023-04-25T14:32:12.013Z,23.91
2023-04-25T14:34:38.384Z,23.91
2023-04-25T14:37:04.788Z,23.89
2023-04-25T14:39:31.166Z,23.83
2023-04-25T14:41:58.884Z,23.88
2023-04-25T14:44:25.382Z,23.87
2023-04-25T14:46:51.844Z,23.86
2023-04-25T14:49:18.340Z,23.83
2023-04-25T14:51:44.792Z,23.81
2023-04-25T14:54:11.176Z,23.72
2023-04-25T14:56:37.519Z,23.69
2023-04-25T14:59:03.921Z,23.63
2023-04-25T15:01:30.473Z,23.68
2023-04-25T15:03:57.287Z,23.65
2023-04-25T15:06:24.078Z,23.55
2023-04-25T15:08:50.466Z,23.53
2023-04-25T15:11:16.840Z,23.48
2023-04-25T15:13:43.156Z,23.46
2023-04-25T15:16:09.654Z,23.44
2023-04-25T15:18:36.053Z,23.39
2023-04-25T15:21:02.462Z,23.37
2023-04-25T15:23:29.819Z,23.35
2023-04-25T15:25:56.347Z,23.38
2023-04-25T15:28:22.741Z,23.37
2023-04-25T15:30:49.142Z,23.34
2023-04-25T15:33:15.681Z,23.30
2023-04-25T15:35:42.233Z,23.29
2023-04-25T15:38:08.764Z,23.27
2023-04-25T15:40:35.145Z,23.25
2023-04-25T15:43:01.566Z,23.20
2023-04-25T15:45:28.056Z,23.18
2023-04-25T15:47:54.527Z,23.14
2023-04-25T15:50:20.912Z,23.12
2023-04-25T15:52:47.279Z,23.09
2023-04-25T15:55:13.673Z,23.03
2023-04-25T15:57:40.058Z,22.99
2023-04-25T16:00:06.531Z,22.99
2023-04-25T16:02:37.915Z,22.96
2023-04-25T16:05:04.572Z,22.94
2023-04-25T16:07:31.087Z,22.64
2023-04-25T16:09:57.667Z,22.88
2023-04-25T16:12:24.122Z,22.82
2023-04-25T16:14:50.744Z,22.80
2023-04-25T16:17:17.183Z,22.79
2023-04-25T16:19:43.568Z,22.74
2023-04-25T16:22:09.931Z,22.70
2023-04-25T16:24:36.255Z,22.71
2023-04-25T16:27:02.721Z,22.68
2023-04-25T16:29:29.092Z,22.66
2023-04-25T16:31:55.533Z,22.63
2023-04-25T16:34:22.044Z,22.61
2023-04-25T16:36:48.418Z,22.57
2023-04-25T16:39:14.773Z,22.58
2023-04-25T16:41:41.105Z,22.55
2023-04-25T16:44:07.504Z,22.53
2023-04-25T16:46:33.892Z,22.52
2023-04-25T16:49:00.570Z,22.52
2023-04-25T16:51:27.004Z,22.47
2023-04-25T16:53:53.360Z,22.46
2023-04-25T16:56:19.713Z,22.41
2023-04-25T16:58:46.168Z,22.39
2023-04-25T17:01:12.494Z,22.37
2023-04-25T17:03:39.009Z,22.34
2023-04-25T17:06:05.444Z,22.33
2023-04-25T17:08:31.777Z,22.30
2023-04-25T17:10:58.158Z,22.27
2023-04-25T17:13:30.860Z,22.24
2023-04-25T17:15:57.925Z,22.21
2023-04-25T17:18:24.648Z,22.19
2023-04-25T17:20:51.135Z,22.17
2023-04-25T17:23:17.456Z,22.15
2023-04-25T17:25:43.786Z,22.12
2023-04-25T17:28:10.189Z,22.09
2023-04-25T17:30:36.607Z,22.07
2023-04-25T17:33:03.124Z,22.04
2023-04-25T17:35:29.506Z,22.00
2023-04-25T17:37:55.806Z,21.99
2023-04-25T17:40:22.260Z,22.00
2023-04-25T17:42:48.617Z,21.98
2023-04-25T17:45:14.938Z,21.96
2023-04-25T17:47:41.358Z,21.95
2023-04-25T17:50:07.710Z,21.94
2023-04-25T17:52:34.026Z,21.86
2023-04-25T17:55:00.353Z,21.89
2023-04-25T17:57:26.729Z,21.88
2023-04-25T17:59:53.086Z,21.85
2023-04-25T18:02:19.537Z,21.83
2023-04-25T18:04:46.032Z,21.84
2023-04-25T18:07:12.393Z,21.83
2023-04-25T18:09:38.714Z,21.79
2023-04-25T18:12:05.086Z,21.75
2023-04-25T18:14:31.428Z,21.72
2023-04-25T18:16:57.762Z,21.68
2023-04-25T18:19:24.174Z,21.68
2023-04-25T18:21:50.496Z,21.64
2023-04-25T18:24:16.876Z,21.62
2023-04-25T18:26:43.258Z,21.60
2023-04-25T18:29:12.019Z,21.58
2023-04-25T18:31:38.558Z,21.54
2023-04-25T18:34:04.984Z,21.52
2023-04-25T18:36:31.316Z,21.50
2023-04-25T18:39:01.127Z,21.47
2023-04-25T18:41:52.031Z,21.44
2023-04-25T18:44:16.141Z,21.39
2023-04-25T18:46:42.506Z,21.36
2023-04-25T18:49:08.867Z,21.30
2023-04-25T18:51:35.229Z,21.28
2023-04-25T18:54:01.737Z,21.24
2023-04-25T18:56:28.091Z,21.22
2023-04-25T18:58:54.483Z,21.18
2023-04-25T19:01:20.992Z,21.14
2023-04-25T19:03:47.587Z,21.08
2023-04-25T19:06:14.222Z,21.05
2023-04-25T19:08:40.593Z,21.01
2023-04-25T19:11:18.048Z,20.97
2023-04-25T19:13:47.524Z,20.92
2023-04-25T19:16:13.862Z,20.87
2023-04-25T19:18:40.235Z,20.82
2023-04-25T19:21:06.650Z,20.74
2023-04-25T19:23:32.962Z,20.74
2023-04-25T19:25:59.268Z,20.68
2023-04-25T19:28:25.780Z,20.66
2023-04-25T19:30:52.128Z,20.62
2023-04-25T19:33:18.500Z,20.59
2023-04-25T19:35:44.848Z,20.54
2023-04-25T19:38:11.161Z,20.49
2023-04-25T19:40:37.495Z,20.44
2023-04-25T19:43:03.837Z,20.40
2023-04-25T19:45:30.153Z,20.36
2023-04-25T19:47:56.535Z,20.32
2023-04-25T19:50:22.909Z,20.29
2023-04-25T19:52:49.247Z,20.26
2023-04-25T19:55:15.598Z,20.21
2023-04-25T19:57:41.991Z,20.17
2023-04-25T20:00:08.303Z,20.13
2023-04-25T20:02:38.478Z,20.09
2023-04-25T20:05:05.318Z,20.05
2023-04-25T20:07:31.752Z,19.99
2023-04-25T20:09:58.065Z,19.94
2023-04-25T20:12:24.444Z,19.92
2023-04-25T20:14:50.742Z,19.89
2023-04-25T20:17:17.052Z,19.86
2023-04-25T20:19:43.420Z,19.83
2023-04-25T20:22:09.755Z,19.81
2023-04-25T20:24:36.080Z,19.78
2023-04-25T20:27:02.470Z,19.72
2023-04-25T20:29:28.815Z,19.71
2023-04-25T20:31:55.197Z,19.66
2023-04-25T20:34:21.625Z,19.66
2023-04-25T20:36:47.946Z,19.61
2023-04-25T20:39:14.266Z,19.60
2023-04-25T20:41:40.625Z,19.57
2023-04-25T20:44:07.011Z,19.53
2023-04-25T20:46:33.336Z,19.49
2023-04-25T20:48:59.701Z,19.45
2023-04-25T20:51:26.020Z,19.43
2023-04-25T20:53:52.352Z,19.41
2023-04-25T20:56:18.724Z,19.39
2023-04-25T20:58:45.046Z,19.36
2023-04-25T21:01:11.562Z,19.34
2023-04-25T21:03:38.394Z,19.24
2023-04-25T21:06:04.864Z,19.19
2023-04-25T21:08:31.185Z,19.17
2023-04-25T21:10:57.517Z,19.15
2023-04-25T21:13:23.881Z,19.00
2023-04-25T21:15:50.222Z,19.04
2023-04-25T21:18:16.691Z,19.04
2023-04-25T21:20:43.197Z,19.01
2023-04-25T21:23:09.561Z,18.96
2023-04-25T21:25:35.916Z,18.92
2023-04-25T21:28:02.323Z,18.92
2023-04-25T21:30:28.656Z,18.89
2023-04-25T21:32:55.105Z,18.80
2023-04-25T21:35:21.484Z,18.74
2023-04-25T21:37:47.801Z,18.68
2023-04-25T21:40:14.154Z,18.64
2023-04-25T21:42:40.462Z,18.58
2023-04-25T21:45:06.870Z,18.50
2023-04-25T21:47:33.411Z,18.43
2023-04-25T21:49:59.744Z,18.37
2023-04-25T21:52:26.108Z,18.28
2023-04-25T21:54:52.424Z,18.31
2023-04-25T21:57:18.751Z,18.27
2023-04-25T21:59:45.053Z,18.23
2023-04-25T22:02:11.529Z,18.20
2023-04-25T22:04:38.002Z,18.17
2023-04-25T22:07:04.459Z,18.14
2023-04-25T22:09:31.899Z,18.14
2023-04-25T22:11:59.445Z,18.11
2023-04-25T22:14:25.754Z,18.17
2023-04-25T22:16:52.116Z,18.19
2023-04-25T22:19:18.477Z,18.15
2023-04-25T22:21:44.877Z,18.14
2023-04-25T22:24:11.201Z,18.13
2023-04-25T22:26:37.618Z,18.09
2023-04-25T22:29:04.027Z,18.08
2023-04-25T22:31:30.540Z,18.08
2023-04-25T22:33:56.900Z,18.05
2023-04-25T22:36:23.212Z,18.03
2023-04-25T22:38:49.869Z,18.01
2023-04-25T22:41:16.413Z,17.99
2023-04-25T22:43:42.753Z,17.89
2023-04-25T22:46:09.145Z,17.93
2023-04-25T22:48:35.466Z,17.95
2023-04-25T22:51:01.780Z,17.91
2023-04-25T22:53:28.151Z,17.91
2023-04-25T22:55:54.491Z,17.83
2023-04-25T22:58:20.936Z,17.85
2023-04-25T23:00:47.344Z,17.83
2023-04-25T23:03:13.811Z,17.79
2023-04-25T23:05:40.247Z,17.80
2023-04-25T23:08:06.596Z,17.76
2023-04-25T23:10:32.908Z,17.76
2023-04-25T23:12:59.224Z,17.72
2023-04-25T23:15:25.578Z,17.68
2023-04-25T23:17:51.909Z,17.68
2023-04-25T23:20:18.267Z,17.64
2023-04-25T23:22:44.620Z,17.63
2023-04-25T23:25:10.936Z,17.61
2023-04-25T23:27:37.303Z,17.58
2023-04-25T23:30:03.699Z,17.57
2023-04-25T23:32:30.024Z,17.56
2023-04-25T23:34:56.371Z,17.52
2023-04-25T23:37:22.706Z,17.51
2023-04-25T23:39:49.013Z,17.50
2023-04-25T23:42:15.331Z,17.46
2023-04-25T23:44:41.695Z,17.46
2023-04-25T23:47:08.006Z,17.41
2023-04-25T23:49:34.386Z,17.42
2023-04-25T23:52:00.759Z,17.40
2023-04-25T23:54:27.048Z,17.37
2023-04-25T23:56:53.462Z,17.35
2023-04-25T23:59:19.823Z,17.30
